createdAt,value
2019-05-22T00:00:35.356Z,34.07
2019-05-22T00:03:06.183Z,31.47
2019-05-22T00:05:37.189Z,32.37
2019-05-22T00:08:12.715Z,31.70
2019-05-22T00:10:43.754Z,32.30
2019-05-22T00:13:18.801Z,32.40
2019-05-22T00:15:51.042Z,32.93
2019-05-22T00:18:21.473Z,33.57
2019-05-22T00:20:51.562Z,31.93
2019-05-22T00:23:22.759Z,32.90
2019-05-22T00:25:53.674Z,33.63
2019-05-22T00:28:25.615Z,32.33
2019-05-22T00:30:55.375Z,33.07
2019-05-22T00:33:24.802Z,36.33
2019-05-22T00:35:55.849Z,37.23
2019-05-22T00:38:26.625Z,38.70
2019-05-22T00:41:03.124Z,38.57
2019-05-22T00:43:37.857Z,38.93
2019-05-22T00:46:09.781Z,37.33
2019-05-22T00:48:41.618Z,37.23
2019-05-22T00:51:37.735Z,37.07
2019-05-22T00:54:39.301Z,37.93
2019-05-22T00:57:35.093Z,36.87
2019-05-22T01:00:24.215Z,36.50
2019-05-22T01:02:56.202Z,38.37
2019-05-22T01:05:28.246Z,38.63
2019-05-22T01:07:58.102Z,37.53
2019-05-22T01:10:32.018Z,37.60
2019-05-22T01:13:03.383Z,38.33
2019-05-22T01:15:35.092Z,36.93
2019-05-22T01:18:07.966Z,36.07
2019-05-22T01:20:39.916Z,37.30
2019-05-22T01:23:12.200Z,36.33
2019-05-22T01:25:43.002Z,38.57
2019-05-22T01:28:14.224Z,36.10
2019-05-22T01:30:57.411Z,37.37
2019-05-22T01:33:31.207Z,37.27
2019-05-22T01:36:18.794Z,35.80
2019-05-22T01:38:50.127Z,34.70
2019-05-22T01:41:28.554Z,36.40
2019-05-22T01:43:59.793Z,32.97
2019-05-22T01:46:33.132Z,33.00
2019-05-22T01:49:06.268Z,33.67
2019-05-22T01:51:35.856Z,33.33
2019-05-22T01:54:05.800Z,34.60
2019-05-22T01:56:36.480Z,32.87
2019-05-22T01:59:07.540Z,32.13
2019-05-22T02:01:37.691Z,30.93
2019-05-22T02:04:07.963Z,30.10
2019-05-22T02:06:39.289Z,29.57
2019-05-22T02:09:26.870Z,30.53
2019-05-22T02:12:02.734Z,28.53
2019-05-22T02:14:32.900Z,29.60
2019-05-22T02:17:02.960Z,27.50
2019-05-22T02:19:32.930Z,27.37
2019-05-22T02:22:03.902Z,27.90
2019-05-22T02:24:33.782Z,29.67
2019-05-22T02:27:04.883Z,29.90
2019-05-22T02:29:35.770Z,28.53
2019-05-22T02:32:08.006Z,29.50
2019-05-22T02:34:39.177Z,28.27
2019-05-22T02:37:08.819Z,31.30
2019-05-22T02:39:39.820Z,30.67
2019-05-22T02:42:15.349Z,28.60
2019-05-22T02:44:46.868Z,29.63
2019-05-22T02:47:20.784Z,29.30
2019-05-22T02:49:50.392Z,28.80
2019-05-22T02:52:38.843Z,28.07
2019-05-22T02:55:08.752Z,27.67
2019-05-22T02:57:38.259Z,25.70
2019-05-22T03:00:08.118Z,26.50
2019-05-22T03:02:46.315Z,26.43
2019-05-22T03:05:17.824Z,25.33
2019-05-22T03:07:48.056Z,26.30
2019-05-22T03:10:20.376Z,24.93
2019-05-22T03:12:51.535Z,26.67
2019-05-22T03:15:26.166Z,27.20
2019-05-22T03:18:05.424Z,25.60
2019-05-22T03:20:35.881Z,25.37
2019-05-22T03:23:35.229Z,28.00
2019-05-22T03:26:08.496Z,27.37
2019-05-22T03:28:38.814Z,27.97
2019-05-22T03:31:09.117Z,26.90
2019-05-22T03:33:40.744Z,27.00
2019-05-22T03:36:13.720Z,26.07
2019-05-22T03:38:44.203Z,27.77
2019-05-22T03:41:14.165Z,27.33
2019-05-22T03:43:46.084Z,28.17
2019-05-22T03:46:49.681Z,27.83
2019-05-22T03:49:30.074Z,26.57
2019-05-22T03:51:52.497Z,28.13
2019-05-22T03:54:21.853Z,26.57
2019-05-22T03:56:52.084Z,27.37
2019-05-22T03:59:21.974Z,28.83
2019-05-22T04:01:51.384Z,28.70
2019-05-22T04:04:36.604Z,27.70
2019-05-22T04:07:08.618Z,28.17
2019-05-22T04:09:40.296Z,28.60
2019-05-22T04:12:10.574Z,27.67
2019-05-22T04:14:40.911Z,26.77
2019-05-22T04:17:12.930Z,27.97
2019-05-22T04:19:49.394Z,26.00
2019-05-22T04:22:14.684Z,26.60
2019-05-22T04:24:44.433Z,26.43
2019-05-22T04:27:13.846Z,25.90
2019-05-22T04:30:02.363Z,26.70
2019-05-22T04:32:35.172Z,24.53
2019-05-22T04:35:09.333Z,24.03
2019-05-22T04:37:40.706Z,27.10
2019-05-22T04:40:47.763Z,26.30
2019-05-22T04:43:20.838Z,25.43
2019-05-22T04:45:51.358Z,24.50
2019-05-22T04:48:21.995Z,24.23
2019-05-22T04:50:53.229Z,24.10
2019-05-22T04:53:23.191Z,25.70
2019-05-22T04:55:54.558Z,23.63
2019-05-22T04:58:29.849Z,24.60
2019-05-22T05:00:59.421Z,23.53
2019-05-22T05:03:29.315Z,24.73
2019-05-22T05:05:59.240Z,25.73
2019-05-22T05:08:29.027Z,24.50
2019-05-22T05:11:01.956Z,26.07
2019-05-22T05:13:31.913Z,25.77
2019-05-22T05:16:01.542Z,27.53
2019-05-22T05:18:31.660Z,27.57
2019-05-22T05:21:02.187Z,25.93
2019-05-22T05:23:31.510Z,26.13
2019-05-22T05:26:01.303Z,24.97
2019-05-22T05:28:33.532Z,24.97
2019-05-22T05:31:03.137Z,23.73
2019-05-22T05:33:34.024Z,24.23
2019-05-22T05:36:03.536Z,23.97
2019-05-22T05:38:37.210Z,23.37
2019-05-22T05:41:07.046Z,23.67
2019-05-22T05:43:36.692Z,24.10
2019-05-22T05:46:06.080Z,23.03
2019-05-22T05:48:35.915Z,22.87
2019-05-22T05:51:40.493Z,24.30
2019-05-22T05:54:18.265Z,22.77
2019-05-22T05:56:49.798Z,24.23
2019-05-22T05:59:21.871Z,22.40
2019-05-22T06:01:55.901Z,21.63
2019-05-22T06:04:35.452Z,20.90
2019-05-22T06:07:20.883Z,21.10
2019-05-22T06:10:29.511Z,21.20
2019-05-22T06:13:01.719Z,18.63
2019-05-22T06:15:47.122Z,21.47
2019-05-22T06:18:36.392Z,20.40
2019-05-22T06:21:09.900Z,20.33
2019-05-22T06:24:16.631Z,19.30
2019-05-22T06:27:08.261Z,20.43
2019-05-22T06:29:59.313Z,21.03
2019-05-22T06:33:05.678Z,20.30
2019-05-22T06:35:37.608Z,19.83
2019-05-22T06:38:54.395Z,21.00
2019-05-22T06:41:25.443Z,20.00
2019-05-22T06:44:30.923Z,20.07
2019-05-22T06:47:01.089Z,19.03
2019-05-22T06:49:58.528Z,20.73
2019-05-22T06:52:28.497Z,19.07
2019-05-22T06:54:58.625Z,18.37
2019-05-22T06:57:29.649Z,18.33
2019-05-22T07:00:13.041Z,19.03
2019-05-22T07:02:32.433Z,18.57
2019-05-22T07:05:02.920Z,17.87
2019-05-22T07:07:32.941Z,17.93
2019-05-22T07:10:02.539Z,17.43
2019-05-22T07:12:34.826Z,18.70
2019-05-22T07:15:28.492Z,17.17
2019-05-22T07:17:58.825Z,17.97
2019-05-22T07:20:30.890Z,17.53
2019-05-22T07:23:02.083Z,17.43
2019-05-22T07:25:33.070Z,16.87
2019-05-22T07:28:03.432Z,16.93
2019-05-22T07:30:33.856Z,18.60
2019-05-22T07:33:03.148Z,16.83
2019-05-22T07:35:49.793Z,15.43
2019-05-22T07:38:03.908Z,16.00
2019-05-22T07:40:33.756Z,15.33
2019-05-22T07:43:03.357Z,15.67
2019-05-22T07:45:34.375Z,15.97
2019-05-22T07:48:04.494Z,14.80
2019-05-22T07:50:36.533Z,16.10
2019-05-22T07:53:07.293Z,15.03
2019-05-22T07:55:36.939Z,13.50
2019-05-22T07:58:11.847Z,13.33
2019-05-22T08:00:47.898Z,13.23
2019-05-22T08:03:17.853Z,13.43
2019-05-22T08:05:53.730Z,12.73
2019-05-22T08:08:25.644Z,13.63
2019-05-22T08:10:56.789Z,12.00
2019-05-22T08:13:27.118Z,11.70
2019-05-22T08:15:57.403Z,12.10
2019-05-22T08:18:31.925Z,14.07
2019-05-22T08:21:01.304Z,12.10
2019-05-22T08:23:30.804Z,12.67
2019-05-22T08:26:00.653Z,12.57
2019-05-22T08:28:33.245Z,11.63
2019-05-22T08:31:04.260Z,12.53
2019-05-22T08:33:35.208Z,11.90
2019-05-22T08:36:05.196Z,12.53
2019-05-22T08:38:36.007Z,12.97
2019-05-22T08:41:08.287Z,12.00
2019-05-22T08:44:03.284Z,12.27
2019-05-22T08:46:10.177Z,12.70
2019-05-22T08:48:47.558Z,12.83
2019-05-22T08:51:12.494Z,12.17
2019-05-22T08:53:47.276Z,13.30
2019-05-22T08:56:14.639Z,13.73
2019-05-22T08:58:46.304Z,13.80
2019-05-22T09:01:15.795Z,13.73
2019-05-22T09:03:46.660Z,13.60
2019-05-22T09:06:16.391Z,13.67
2019-05-22T09:08:46.129Z,12.83
2019-05-22T09:11:15.846Z,14.37
2019-05-22T09:13:45.563Z,13.20
2019-05-22T09:16:15.734Z,13.07
2019-05-22T09:18:45.257Z,13.87
2019-05-22T09:21:15.577Z,13.30
2019-05-22T09:23:45.822Z,15.43
2019-05-22T09:26:15.615Z,14.23
2019-05-22T09:28:45.328Z,14.13
2019-05-22T09:31:14.719Z,13.67
2019-05-22T09:33:44.374Z,13.60
2019-05-22T09:36:15.887Z,12.77
2019-05-22T09:38:45.735Z,12.73
2019-05-22T09:41:15.425Z,11.87
2019-05-22T09:43:45.084Z,11.20
2019-05-22T09:46:15.005Z,11.50
2019-05-22T09:48:45.077Z,11.70
2019-05-22T09:51:14.597Z,14.23
2019-05-22T09:53:44.621Z,12.67
2019-05-22T09:56:14.521Z,13.20
2019-05-22T09:58:44.110Z,11.97
2019-05-22T10:01:13.789Z,11.47
2019-05-22T10:03:43.131Z,11.27
2019-05-22T10:06:13.412Z,12.97
2019-05-22T10:08:42.769Z,12.83
2019-05-22T10:11:13.017Z,12.87
2019-05-22T10:13:42.506Z,13.37
2019-05-22T10:16:12.269Z,12.37
2019-05-22T10:18:41.600Z,12.20
2019-05-22T10:21:11.277Z,11.67
2019-05-22T10:23:41.456Z,10.87
2019-05-22T10:26:11.062Z,11.67
2019-05-22T10:28:41.110Z,11.23
2019-05-22T10:31:11.820Z,10.23
2019-05-22T10:33:41.734Z,10.27
2019-05-22T10:36:11.203Z,10.33
2019-05-22T10:38:40.639Z,10.73
2019-05-22T10:41:10.054Z,13.10
2019-05-22T10:43:39.428Z,13.13
2019-05-22T10:46:09.534Z,13.00
2019-05-22T10:48:40.464Z,13.90
2019-05-22T10:51:10.224Z,11.80
2019-05-22T10:53:39.838Z,11.60
2019-05-22T10:56:10.011Z,10.07
2019-05-22T10:58:39.841Z,10.63
2019-05-22T11:01:10.019Z,9.63
2019-05-22T11:03:41.094Z,8.90
2019-05-22T11:06:11.194Z,9.47
2019-05-22T11:08:41.995Z,9.57
2019-05-22T11:11:11.761Z,9.67
2019-05-22T11:14:00.609Z,8.80
2019-05-22T11:16:22.138Z,8.73
2019-05-22T11:18:52.597Z,9.77
2019-05-22T11:21:21.959Z,8.43
2019-05-22T11:23:53.029Z,8.10
2019-05-22T11:26:22.536Z,8.23
2019-05-22T11:28:52.367Z,7.87
2019-05-22T11:31:22.377Z,8.40
2019-05-22T11:33:52.163Z,8.50
2019-05-22T11:36:22.067Z,8.60
2019-05-22T11:38:51.573Z,8.60
2019-05-22T11:41:20.918Z,8.97
2019-05-22T11:43:50.908Z,8.40
2019-05-22T11:46:20.599Z,8.77
2019-05-22T11:48:50.813Z,7.53
2019-05-22T11:51:21.910Z,8.57
2019-05-22T11:54:07.808Z,8.17
2019-05-22T11:56:22.715Z,8.10
2019-05-22T11:58:52.040Z,8.10
2019-05-22T12:01:21.552Z,8.17
2019-05-22T12:03:53.587Z,8.50
2019-05-22T12:06:25.262Z,7.73
2019-05-22T12:08:55.579Z,7.50
2019-05-22T12:11:25.758Z,7.57
2019-05-22T12:13:55.485Z,6.90
2019-05-22T12:16:25.747Z,8.37
2019-05-22T12:18:58.468Z,7.30
2019-05-22T12:21:27.459Z,7.67
2019-05-22T12:23:56.932Z,8.07
2019-05-22T12:26:26.816Z,8.03
2019-05-22T12:28:56.652Z,8.00
2019-05-22T12:31:26.971Z,8.13
2019-05-22T12:33:56.357Z,7.20
2019-05-22T12:36:26.257Z,6.70
2019-05-22T12:38:55.674Z,8.83
2019-05-22T12:41:26.149Z,7.00
2019-05-22T12:43:55.668Z,7.90
2019-05-22T12:46:25.814Z,7.43
2019-05-22T12:48:56.070Z,7.20
2019-05-22T12:51:27.019Z,8.50
2019-05-22T12:53:56.400Z,7.60
2019-05-22T12:56:25.742Z,7.23
2019-05-22T12:58:56.406Z,6.43
2019-05-22T13:01:28.373Z,5.97
2019-05-22T13:03:59.286Z,5.80
2019-05-22T13:06:31.374Z,6.03
2019-05-22T13:09:01.694Z,6.07
2019-05-22T13:11:31.262Z,5.00
2019-05-22T13:14:00.760Z,5.17
2019-05-22T13:16:30.846Z,5.07
2019-05-22T13:19:01.074Z,5.07
2019-05-22T13:21:34.067Z,4.67
2019-05-22T13:24:15.187Z,4.70
2019-05-22T13:26:47.376Z,4.73
2019-05-22T13:29:17.528Z,4.50
2019-05-22T13:31:49.701Z,4.60
2019-05-22T13:34:20.360Z,4.20
2019-05-22T13:36:50.469Z,4.20
2019-05-22T13:39:21.365Z,5.33
2019-05-22T13:41:51.435Z,4.67
2019-05-22T13:44:22.145Z,4.77
2019-05-22T13:46:52.946Z,4.47
2019-05-22T13:49:22.543Z,3.60
2019-05-22T13:51:52.388Z,4.43
2019-05-22T13:54:22.520Z,4.33
2019-05-22T13:56:52.047Z,3.67
2019-05-22T13:59:22.473Z,3.87
2019-05-22T14:01:53.623Z,3.80
2019-05-22T14:04:23.151Z,3.53
2019-05-22T14:06:53.561Z,3.40
2019-05-22T14:09:23.229Z,3.37
2019-05-22T14:11:53.697Z,3.10
2019-05-22T14:14:23.503Z,3.30
2019-05-22T14:16:53.176Z,2.87
2019-05-22T14:19:22.584Z,3.30
2019-05-22T14:21:52.240Z,2.80
2019-05-22T14:24:22.004Z,3.17
2019-05-22T14:26:52.101Z,3.30
2019-05-22T14:29:21.505Z,3.17
2019-05-22T14:31:51.090Z,3.47
2019-05-22T14:34:21.347Z,3.60
2019-05-22T14:36:50.816Z,3.60
2019-05-22T14:39:21.211Z,3.43
2019-05-22T14:41:50.531Z,3.50
2019-05-22T14:44:20.183Z,3.50
2019-05-22T14:46:49.636Z,3.47
2019-05-22T14:49:20.951Z,3.77
2019-05-22T14:51:50.240Z,3.17
2019-05-22T14:54:20.308Z,3.20
2019-05-22T14:56:49.692Z,3.10
2019-05-22T14:59:19.876Z,2.80
2019-05-22T15:01:49.802Z,3.17
2019-05-22T15:04:19.409Z,3.00
2019-05-22T15:06:50.895Z,3.07
2019-05-22T15:09:20.605Z,2.60
2019-05-22T15:11:50.132Z,2.70
2019-05-22T15:14:21.036Z,3.40
2019-05-22T15:16:50.493Z,3.10
2019-05-22T15:19:21.080Z,2.53
2019-05-22T15:21:50.439Z,2.70
2019-05-22T15:24:20.378Z,2.67
2019-05-22T15:26:50.381Z,2.77
2019-05-22T15:29:20.291Z,2.83
2019-05-22T15:31:49.691Z,2.70
2019-05-22T15:34:19.870Z,2.80
2019-05-22T15:36:49.493Z,2.70
2019-05-22T15:39:23.446Z,2.40
2019-05-22T15:41:53.515Z,2.50
2019-05-22T15:44:23.344Z,2.30
2019-05-22T15:46:52.838Z,2.07
2019-05-22T15:49:22.728Z,2.40
2019-05-22T15:51:53.795Z,2.17
2019-05-22T15:54:24.953Z,2.30
2019-05-22T15:56:55.007Z,1.90
2019-05-22T15:59:25.647Z,1.80
2019-05-22T16:01:55.086Z,2.00
2019-05-22T16:04:25.181Z,2.03
2019-05-22T16:06:54.915Z,2.10
2019-05-22T16:09:26.660Z,1.90
2019-05-22T16:11:56.454Z,2.00
2019-05-22T16:14:29.476Z,1.93
2019-05-22T16:16:59.367Z,2.17
2019-05-22T16:19:31.197Z,1.63
2019-05-22T16:22:05.307Z,2.07
2019-05-22T16:24:36.063Z,1.83
2019-05-22T16:27:06.728Z,1.80
2019-05-22T16:29:37.196Z,2.30
2019-05-22T16:32:10.235Z,1.80
2019-05-22T16:34:41.826Z,1.83
2019-05-22T16:37:11.798Z,2.23
2019-05-22T16:39:41.719Z,1.73
2019-05-22T16:42:11.657Z,1.90
2019-05-22T16:44:41.958Z,1.77
2019-05-22T16:47:12.392Z,2.03
2019-05-22T16:49:42.279Z,1.90
2019-05-22T16:52:14.859Z,2.07
2019-05-22T16:54:44.872Z,2.03
2019-05-22T16:57:15.557Z,1.70
2019-05-22T16:59:46.029Z,2.20
2019-05-22T17:02:18.876Z,2.00
2019-05-22T17:04:48.965Z,2.30
2019-05-22T17:07:19.344Z,2.57
2019-05-22T17:09:51.337Z,1.97
2019-05-22T17:12:23.859Z,2.20
2019-05-22T17:14:54.478Z,1.80
2019-05-22T17:17:24.133Z,1.97
2019-05-22T17:19:54.108Z,1.80
2019-05-22T17:22:24.348Z,1.93
2019-05-22T17:24:54.006Z,1.93
2019-05-22T17:27:24.007Z,1.97
2019-05-22T17:29:54.211Z,1.43
2019-05-22T17:32:24.710Z,2.03
2019-05-22T17:34:54.256Z,1.77
2019-05-22T17:37:25.259Z,1.70
2019-05-22T17:39:55.286Z,1.90
2019-05-22T17:42:27.461Z,1.63
2019-05-22T17:44:57.796Z,1.90
2019-05-22T17:47:29.325Z,1.20
2019-05-22T17:50:01.919Z,2.07
2019-05-22T17:52:32.662Z,1.60
2019-05-22T17:55:02.395Z,1.67
2019-05-22T17:57:41.321Z,1.45
2019-05-22T18:00:18.422Z,1.60
2019-05-22T18:02:47.853Z,1.37
2019-05-22T18:05:18.841Z,1.87
2019-05-22T18:08:07.460Z,1.80
2019-05-22T18:10:40.595Z,1.37
2019-05-22T18:13:29.931Z,1.80
2019-05-22T18:16:04.199Z,1.60
2019-05-22T18:18:32.179Z,2.13
2019-05-22T18:21:02.352Z,1.67
2019-05-22T18:23:32.601Z,1.37
2019-05-22T18:26:02.138Z,1.77
2019-05-22T18:28:33.788Z,4.07
2019-05-22T18:31:04.406Z,2.10
2019-05-22T18:33:33.852Z,1.57
2019-05-22T18:36:03.310Z,1.60
2019-05-22T18:38:32.748Z,1.73
2019-05-22T18:41:02.137Z,1.60
2019-05-22T18:43:31.802Z,1.60
2019-05-22T18:46:01.461Z,1.90
2019-05-22T18:48:33.149Z,1.20
2019-05-22T18:51:03.290Z,1.50
2019-05-22T18:53:33.175Z,1.43
2019-05-22T18:56:02.959Z,1.73
2019-05-22T18:58:32.449Z,1.47
2019-05-22T19:01:01.949Z,1.90
2019-05-22T19:03:31.570Z,1.73
2019-05-22T19:06:02.515Z,1.47
2019-05-22T19:08:33.047Z,1.80
2019-05-22T19:11:02.811Z,1.63
2019-05-22T19:13:32.232Z,1.87
2019-05-22T19:16:01.978Z,1.53
2019-05-22T19:18:31.424Z,1.80
2019-05-22T19:21:00.814Z,1.83
2019-05-22T19:23:30.449Z,1.80
2019-05-22T19:25:59.914Z,1.50
2019-05-22T19:28:43.063Z,1.70
2019-05-22T19:31:00.568Z,1.63
2019-05-22T19:33:30.432Z,1.87
2019-05-22T19:35:59.928Z,1.87
2019-05-22T19:38:29.304Z,1.80
2019-05-22T19:40:59.348Z,2.00
2019-05-22T19:43:28.979Z,1.97
2019-05-22T19:45:58.420Z,1.50
2019-05-22T19:48:28.413Z,1.90
2019-05-22T19:50:58.202Z,2.13
2019-05-22T19:53:28.488Z,2.20
2019-05-22T19:55:58.028Z,2.37
2019-05-22T19:58:29.707Z,2.17
2019-05-22T20:00:59.132Z,2.33
2019-05-22T20:03:29.302Z,2.47
2019-05-22T20:05:59.271Z,2.20
2019-05-22T20:08:28.690Z,2.17
2019-05-22T20:10:58.887Z,1.97
2019-05-22T20:13:28.597Z,2.43
2019-05-22T20:15:58.603Z,2.53
2019-05-22T20:18:28.216Z,2.43
2019-05-22T20:20:57.693Z,2.00
2019-05-22T20:23:36.286Z,2.73
2019-05-22T20:25:58.171Z,2.60
2019-05-22T20:28:27.719Z,2.00
2019-05-22T20:30:57.701Z,2.53
2019-05-22T20:33:27.245Z,2.90
2019-05-22T20:35:56.632Z,2.83
2019-05-22T20:38:26.608Z,2.30
2019-05-22T20:40:56.029Z,2.33
2019-05-22T20:43:25.833Z,2.43
2019-05-22T20:45:56.713Z,2.60
2019-05-22T20:48:30.195Z,2.57
2019-05-22T20:51:01.914Z,2.50
2019-05-22T20:53:32.745Z,2.77
2019-05-22T20:56:03.469Z,2.30
2019-05-22T20:58:33.986Z,7.00
2019-05-22T21:01:03.407Z,3.43
2019-05-22T21:03:33.454Z,2.80
2019-05-22T21:06:05.532Z,2.60
2019-05-22T21:08:34.951Z,2.20
2019-05-22T21:11:05.458Z,2.70
2019-05-22T21:13:35.693Z,2.53
2019-05-22T21:16:07.448Z,2.43
2019-05-22T21:18:47.859Z,2.77
2019-05-22T21:21:19.104Z,2.47
2019-05-22T21:23:48.651Z,2.93
2019-05-22T21:26:20.667Z,2.43
2019-05-22T21:28:50.310Z,2.90
2019-05-22T21:31:20.501Z,2.50
2019-05-22T21:33:52.048Z,2.50
2019-05-22T21:36:23.137Z,2.80
2019-05-22T21:38:52.794Z,2.57
2019-05-22T21:41:23.176Z,2.87
2019-05-22T21:43:54.490Z,2.57
2019-05-22T21:46:24.912Z,3.10
2019-05-22T21:48:56.071Z,2.87
2019-05-22T21:51:25.465Z,3.60
2019-05-22T21:53:55.688Z,3.40
2019-05-22T21:56:25.860Z,3.27
2019-05-22T21:58:55.989Z,2.70
2019-05-22T22:01:48.410Z,3.07
2019-05-22T22:04:25.930Z,3.70
2019-05-22T22:06:56.436Z,3.50
2019-05-22T22:09:27.049Z,3.70
2019-05-22T22:11:57.186Z,3.40
2019-05-22T22:14:26.750Z,3.47
2019-05-22T22:16:56.429Z,3.60
2019-05-22T22:19:27.240Z,3.50
2019-05-22T22:21:56.900Z,3.63
2019-05-22T22:24:27.965Z,3.90
2019-05-22T22:26:58.359Z,3.73
2019-05-22T22:29:27.847Z,3.33
2019-05-22T22:31:58.941Z,3.97
2019-05-22T22:34:38.798Z,4.00
2019-05-22T22:37:11.986Z,3.97
2019-05-22T22:39:44.373Z,3.63
2019-05-22T22:42:16.902Z,3.53
2019-05-22T22:44:50.126Z,3.43
2019-05-22T22:47:23.881Z,3.43
2019-05-22T22:49:55.444Z,4.07
2019-05-22T22:52:26.142Z,4.43
2019-05-22T22:54:56.432Z,4.90
2019-05-22T22:57:27.323Z,4.40
2019-05-22T22:59:57.636Z,4.93
2019-05-22T23:02:30.788Z,5.40
2019-05-22T23:05:01.113Z,4.70
2019-05-22T23:07:31.823Z,4.80
2019-05-22T23:10:01.877Z,5.20
2019-05-22T23:12:35.416Z,4.60
2019-05-22T23:15:07.741Z,5.43
2019-05-22T23:17:37.245Z,4.93
2019-05-22T23:20:05.917Z,5.30
2019-05-22T23:22:34.727Z,5.80
2019-05-22T23:25:06.277Z,5.60
2019-05-22T23:27:38.776Z,5.67
2019-05-22T23:30:10.925Z,5.67
2019-05-22T23:32:43.326Z,5.90
2019-05-22T23:35:13.777Z,6.67
2019-05-22T23:37:44.368Z,7.07
2019-05-22T23:40:18.685Z,6.23
2019-05-22T23:42:48.995Z,6.40
2019-05-22T23:45:22.008Z,6.20
2019-05-22T23:48:06.468Z,6.70
2019-05-22T23:50:38.126Z,6.43
2019-05-22T23:53:08.700Z,7.07
2019-05-22T23:55:38.994Z,7.03
2019-05-22T23:58:12.221Z,6.87
